KUVA/UVA METAR and TAF weather

Enter ICAO airport designator
Station Type Date Time Source
KUVA METAR 2020/07/06 09:55 UTC NOAA

KUVA 060955Z AUTO 09003KT 10SM 26/22 A2986 RMK AO2 T02630220


Station Type Date Time Source
KUVA Decoded METAR 2020/07/06 09:55 UTC NOAA

Uvalde, Garner Field Airport, TX, United States (KUVA) 29-12-40N 099-44-36W
Jul 06, 2020 - 05:55 AM EDT / 2020.07.06 0955 UTC
Wind: from the E (090 degrees) at 3 MPH (3 KT):0
Visibility: 10 mile(s):0
Temperature: 79.3 F (26.3 C)
Dew Point: 71.6 F (22.0 C)
Relative Humidity: 77%
Pressure (altimeter): 29.86 in. Hg (1011 hPa)
ob: KUVA 060955Z AUTO 09003KT 10SM 26/22 A2986 RMK AO2 T02630220
cycle: 10

Station Type Date Time Source
KUVA TAF UTC NOAA

Error!

Example: see airport list